sensor_id;sensor_type;location;lat;lon;timestamp;pressure;altitude;pressure_sealevel;temperature;humidity
64053;BME280;50299;49.524;8.536;2023-11-22T00:01:06;101094.94;;;1.55;81.09
64053;BME280;50299;49.524;8.536;2023-11-22T00:03:33;101096.41;;;1.24;93.61
64053;BME280;50299;49.524;8.536;2023-11-22T00:06:00;101107.50;;;0.66;100.00
64053;BME280;50299;49.524;8.536;2023-11-22T00:08:28;101113.34;;;0.92;100.00
64053;BME280;50299;49.524;8.536;2023-11-22T00:10:55;101110.31;;;0.55;100.00
64053;BME280;50299;49.524;8.536;2023-11-22T00:13:22;101110.16;;;0.61;100.00
64053;BME280;50299;49.524;8.536;2023-11-22T00:15:48;101116.19;;;0.35;100.00
64053;BME280;50299;49.524;8.536;2023-11-22T00:18:17;101098.00;;;0.52;100.00
64053;BME280;50299;49.524;8.536;2023-11-22T00:20:43;101114.56;;;0.34;100.00
64053;BME280;50299;49.524;8.536;2023-11-22T00:23:10;101113.16;;;0.48;100.00
64053;BME280;50299;49.524;8.536;2023-11-22T00:25:36;101119.22;;;0.21;100.00
64053;BME280;50299;49.524;8.536;2023-11-22T00:28:03;101121.16;;;-0.19;100.00
64053;BME280;50299;49.524;8.536;2023-11-22T00:30:32;101120.00;;;0.34;100.00
64053;BME280;50299;49.524;8.536;2023-11-22T00:32:58;101116.41;;;0.45;100.00
64053;BME280;50299;49.524;8.536;2023-11-22T00:35:25;101129.72;;;0.30;100.00
64053;BME280;50299;49.524;8.536;2023-11-22T00:37:51;101133.47;;;0.57;100.00
64053;BME280;50299;49.524;8.536;2023-11-22T00:40:18;101134.72;;;0.21;100.00
64053;BME280;50299;49.524;8.536;2023-11-22T00:42:44;101142.50;;;0.29;100.00
64053;BME280;50299;49.524;8.536;2023-11-22T00:45:11;101145.63;;;0.38;100.00
64053;BME280;50299;49.524;8.536;2023-11-22T00:47:38;101144.03;;;0.54;100.00
64053;BME280;50299;49.524;8.536;2023-11-22T00:50:06;101147.31;;;0.72;100.00
64053;BME280;50299;49.524;8.536;2023-11-22T00:52:32;101148.81;;;0.80;100.00
64053;BME280;50299;49.524;8.536;2023-11-22T00:54:59;101159.03;;;0.73;100.00
64053;BME280;50299;49.524;8.536;2023-11-22T00:57:26;101163.44;;;0.91;100.00
64053;BME280;50299;49.524;8.536;2023-11-22T00:59:56;101160.78;;;0.79;100.00
64053;BME280;50299;49.524;8.536;2023-11-22T01:02:23;101160.06;;;1.01;100.00
64053;BME280;50299;49.524;8.536;2023-11-22T01:04:49;101161.69;;;1.18;100.00
64053;BME280;50299;49.524;8.536;2023-11-22T01:07:19;101165.75;;;0.82;99.04
64053;BME280;50299;49.524;8.536;2023-11-22T01:09:45;101161.69;;;1.02;100.00
64053;BME280;50299;49.524;8.536;2023-11-22T01:12:12;101165.56;;;1.06;100.00
64053;BME280;50299;49.524;8.536;2023-11-22T01:14:39;101163.44;;;1.08;100.00
64053;BME280;50299;49.524;8.536;2023-11-22T01:17:05;101162.31;;;0.41;96.15
64053;BME280;50299;49.524;8.536;2023-11-22T01:19:32;101166.66;;;0.14;96.40
64053;BME280;50299;49.524;8.536;2023-11-22T01:21:58;101158.50;;;0.14;96.25
64053;BME280;50299;49.524;8.536;2023-11-22T01:24:25;101169.00;;;0.22;97.21
64053;BME280;50299;49.524;8.536;2023-11-22T01:26:54;101167.25;;;0.16;97.10
64053;BME280;50299;49.524;8.536;2023-11-22T01:29:20;101169.94;;;0.44;99.53
64053;BME280;50299;49.524;8.536;2023-11-22T01:31:47;101174.97;;;0.36;96.64
64053;BME280;50299;49.524;8.536;2023-11-22T01:34:14;101166.28;;;0.51;97.09
64053;BME280;50299;49.524;8.536;2023-11-22T01:36:48;101174.56;;;0.44;96.05
64053;BME280;50299;49.524;8.536;2023-11-22T01:39:15;101177.06;;;0.45;94.46
64053;BME280;50299;49.524;8.536;2023-11-22T01:41:44;101179.63;;;0.52;92.82
64053;BME280;50299;49.524;8.536;2023-11-22T01:44:11;101183.94;;;0.36;90.73
64053;BME280;50299;49.524;8.536;2023-11-22T01:46:38;101183.91;;;0.48;90.82
64053;BME280;50299;49.524;8.536;2023-11-22T01:49:06;101184.88;;;0.13;85.21
64053;BME280;50299;49.524;8.536;2023-11-22T01:51:39;101195.41;;;0.38;86.58
64053;BME280;50299;49.524;8.536;2023-11-22T01:54:09;101199.75;;;0.11;86.88
64053;BME280;50299;49.524;8.536;2023-11-22T01:56:35;101201.66;;;0.10;82.27
64053;BME280;50299;49.524;8.536;2023-11-22T01:59:03;101208.16;;;0.09;81.92
64053;BME280;50299;49.524;8.536;2023-11-22T02:01:31;101217.69;;;-0.29;80.47
64053;BME280;50299;49.524;8.536;2023-11-22T02:03:58;101213.44;;;-0.24;82.04
64053;BME280;50299;49.524;8.536;2023-11-22T02:06:24;101207.03;;;-0.18;79.08
64053;BME280;50299;49.524;8.536;2023-11-22T02:08:52;101211.19;;;-0.39;77.80
64053;BME280;50299;49.524;8.536;2023-11-22T02:11:19;101211.16;;;-0.04;79.03
64053;BME280;50299;49.524;8.536;2023-11-22T02:13:51;101217.31;;;-0.09;78.65
64053;BME280;50299;49.524;8.536;2023-11-22T02:16:18;101225.22;;;0.05;78.59
64053;BME280;50299;49.524;8.536;2023-11-22T02:18:49;101229.09;;;0.09;79.04
64053;BME280;50299;49.524;8.536;2023-11-22T02:21:18;101234.81;;;-0.05;75.13
64053;BME280;50299;49.524;8.536;2023-11-22T02:23:45;101240.97;;;-0.21;75.71
64053;BME280;50299;49.524;8.536;2023-11-22T02:26:12;101244.97;;;-0.12;81.23
64053;BME280;50299;49.524;8.536;2023-11-22T02:28:39;101254.41;;;-0.03;75.44
64053;BME280;50299;49.524;8.536;2023-11-22T02:31:05;101259.84;;;-0.14;75.96
64053;BME280;50299;49.524;8.536;2023-11-22T02:33:32;101263.53;;;-0.32;72.00
64053;BME280;50299;49.524;8.536;2023-11-22T02:35:58;101268.34;;;-0.34;75.06
64053;BME280;50299;49.524;8.536;2023-11-22T02:38:25;101270.25;;;-0.23;73.18
64053;BME280;50299;49.524;8.536;2023-11-22T02:40:54;101281.72;;;-0.21;72.00
64053;BME280;50299;49.524;8.536;2023-11-22T02:43:20;101290.56;;;-0.25;73.49
64053;BME280;50299;49.524;8.536;2023-11-22T02:45:49;101294.00;;;-0.18;72.52
64053;BME280;50299;49.524;8.536;2023-11-22T02:48:15;101287.72;;;-0.42;70.42
64053;BME280;50299;49.524;8.536;2023-11-22T02:50:42;101283.00;;;-0.47;70.58
64053;BME280;50299;49.524;8.536;2023-11-22T02:53:10;101287.84;;;-0.49;70.79
64053;BME280;50299;49.524;8.536;2023-11-22T02:55:36;101277.34;;;-0.57;72.49
64053;BME280;50299;49.524;8.536;2023-11-22T02:58:03;101281.44;;;-0.55;70.75
64053;BME280;50299;49.524;8.536;2023-11-22T03:00:35;101275.03;;;-0.84;70.16
64053;BME280;50299;49.524;8.536;2023-11-22T03:03:02;101284.84;;;-0.83;71.08
64053;BME280;50299;49.524;8.536;2023-11-22T03:05:31;101285.53;;;-0.87;72.46
64053;BME280;50299;49.524;8.536;2023-11-22T03:07:57;101283.41;;;-0.85;70.30
64053;BME280;50299;49.524;8.536;2023-11-22T03:10:24;101272.16;;;-1.00;71.08
64053;BME280;50299;49.524;8.536;2023-11-22T03:12:51;101274.59;;;-0.69;72.38
64053;BME280;50299;49.524;8.536;2023-11-22T03:15:17;101275.78;;;-0.65;71.68
64053;BME280;50299;49.524;8.536;2023-11-22T03:17:46;101279.69;;;-0.61;71.94
64053;BME280;50299;49.524;8.536;2023-11-22T03:20:16;101281.78;;;-0.63;70.88
64053;BME280;50299;49.524;8.536;2023-11-22T03:22:42;101283.56;;;-0.68;70.44
64053;BME280;50299;49.524;8.536;2023-11-22T03:25:16;101301.88;;;-0.64;71.61
64053;BME280;50299;49.524;8.536;2023-11-22T03:27:44;101304.56;;;-0.75;70.72
64053;BME280;50299;49.524;8.536;2023-11-22T03:30:12;101311.50;;;-0.80;71.35
64053;BME280;50299;49.524;8.536;2023-11-22T03:32:40;101319.81;;;-0.74;70.97
64053;BME280;50299;49.524;8.536;2023-11-22T03:35:07;101326.44;;;-0.70;71.07
64053;BME280;50299;49.524;8.536;2023-11-22T03:37:34;101337.44;;;-0.95;71.02
64053;BME280;50299;49.524;8.536;2023-11-22T03:40:02;101325.53;;;-0.94;71.77
64053;BME280;50299;49.524;8.536;2023-11-22T03:42:29;101337.28;;;-1.00;72.65
64053;BME280;50299;49.524;8.536;2023-11-22T03:44:59;101335.72;;;-1.08;73.28
64053;BME280;50299;49.524;8.536;2023-11-22T03:47:25;101338.31;;;-1.32;73.04
64053;BME280;50299;49.524;8.536;2023-11-22T03:49:52;101345.69;;;-1.39;75.36
64053;BME280;50299;49.524;8.536;2023-11-22T03:52:19;101347.75;;;-1.53;74.11
64053;BME280;50299;49.524;8.536;2023-11-22T03:54:45;101358.56;;;-1.34;73.85
64053;BME280;50299;49.524;8.536;2023-11-22T03:57:12;101361.16;;;-1.39;73.91
64053;BME280;50299;49.524;8.536;2023-11-22T03:59:40;101349.78;;;-1.48;74.33
64053;BME280;50299;49.524;8.536;2023-11-22T04:02:07;101353.66;;;-1.25;74.57
64053;BME280;50299;49.524;8.536;2023-11-22T04:04:33;101360.41;;;-1.28;72.86
64053;BME280;50299;49.524;8.536;2023-11-22T04:07:01;101360.75;;;-1.24;72.87
64053;BME280;50299;49.524;8.536;2023-11-22T04:09:27;101370.66;;;-1.48;72.99
64053;BME280;50299;49.524;8.536;2023-11-22T04:11:58;101376.69;;;-1.28;72.95
64053;BME280;50299;49.524;8.536;2023-11-22T04:14:25;101374.78;;;-1.28;72.75
64053;BME280;50299;49.524;8.536;2023-11-22T04:16:53;101377.94;;;-1.49;73.17
64053;BME280;50299;49.524;8.536;2023-11-22T04:19:20;101383.69;;;-1.39;74.51
64053;BME280;50299;49.524;8.536;2023-11-22T04:21:47;101383.00;;;-1.53;73.50
64053;BME280;50299;49.524;8.536;2023-11-22T04:24:14;101391.50;;;-1.67;75.07
64053;BME280;50299;49.524;8.536;2023-11-22T04:26:40;101398.81;;;-1.68;76.15
64053;BME280;50299;49.524;8.536;2023-11-22T04:29:07;101417.25;;;-1.77;75.37
64053;BME280;50299;49.524;8.536;2023-11-22T04:31:34;101419.91;;;-1.95;76.75
64053;BME280;50299;49.524;8.536;2023-11-22T04:34:00;101421.09;;;-1.91;76.76
64053;BME280;50299;49.524;8.536;2023-11-22T04:36:30;101430.28;;;-1.67;74.99
64053;BME280;50299;49.524;8.536;2023-11-22T04:38:57;101431.25;;;-1.61;75.29
64053;BME280;50299;49.524;8.536;2023-11-22T04:41:23;101431.59;;;-1.51;76.34
64053;BME280;50299;49.524;8.536;2023-11-22T04:43:54;101431.28;;;-1.43;73.38
64053;BME280;50299;49.524;8.536;2023-11-22T04:46:20;101432.75;;;-1.40;73.16
64053;BME280;50299;49.524;8.536;2023-11-22T04:48:47;101433.63;;;-1.46;73.85
64053;BME280;50299;49.524;8.536;2023-11-22T04:51:17;101430.03;;;-1.65;73.03
64053;BME280;50299;49.524;8.536;2023-11-22T04:53:50;101431.16;;;-1.48;75.04
64053;BME280;50299;49.524;8.536;2023-11-22T04:56:19;101429.69;;;-1.50;72.85
64053;BME280;50299;49.524;8.536;2023-11-22T04:58:45;101441.34;;;-1.68;71.50
64053;BME280;50299;49.524;8.536;2023-11-22T05:01:12;101443.56;;;-1.59;71.99
64053;BME280;50299;49.524;8.536;2023-11-22T05:03:40;101443.88;;;-1.73;74.24
64053;BME280;50299;49.524;8.536;2023-11-22T05:06:07;101446.69;;;-1.62;72.04
64053;BME280;50299;49.524;8.536;2023-11-22T05:08:33;101451.16;;;-1.67;71.17
64053;BME280;50299;49.524;8.536;2023-11-22T05:11:00;101447.75;;;-1.63;72.09
64053;BME280;50299;49.524;8.536;2023-11-22T05:13:27;101455.94;;;-1.69;72.66
64053;BME280;50299;49.524;8.536;2023-11-22T05:15:54;101462.03;;;-1.74;71.75
64053;BME280;50299;49.524;8.536;2023-11-22T05:18:20;101454.72;;;-1.73;72.16
64053;BME280;50299;49.524;8.536;2023-11-22T05:20:50;101458.72;;;-1.76;71.29
64053;BME280;50299;49.524;8.536;2023-11-22T05:23:18;101456.53;;;-1.86;70.87
64053;BME280;50299;49.524;8.536;2023-11-22T05:25:44;101465.31;;;-1.90;71.32
64053;BME280;50299;49.524;8.536;2023-11-22T05:28:14;101469.50;;;-1.94;71.22
64053;BME280;50299;49.524;8.536;2023-11-22T05:30:40;101468.94;;;-2.03;72.27
64053;BME280;50299;49.524;8.536;2023-11-22T05:33:07;101470.16;;;-1.99;71.80
64053;BME280;50299;49.524;8.536;2023-11-22T05:35:33;101478.53;;;-2.00;72.07
64053;BME280;50299;49.524;8.536;2023-11-22T05:38:00;101484.34;;;-2.29;71.91
64053;BME280;50299;49.524;8.536;2023-11-22T05:40:34;101483.66;;;-2.17;73.00
64053;BME280;50299;49.524;8.536;2023-11-22T05:43:06;101483.22;;;-2.14;72.62
64053;BME280;50299;49.524;8.536;2023-11-22T05:45:38;101490.81;;;-2.30;72.33
64053;BME280;50299;49.524;8.536;2023-11-22T05:48:05;101501.28;;;-2.40;72.77
64053;BME280;50299;49.524;8.536;2023-11-22T05:50:31;101505.44;;;-2.37;73.15
64053;BME280;50299;49.524;8.536;2023-11-22T05:52:58;101513.13;;;-2.34;73.14
64053;BME280;50299;49.524;8.536;2023-11-22T05:55:24;101523.81;;;-2.46;73.55
64053;BME280;50299;49.524;8.536;2023-11-22T05:57:53;101523.31;;;-2.30;73.49
64053;BME280;50299;49.524;8.536;2023-11-22T06:00:20;101524.72;;;-2.20;72.47
64053;BME280;50299;49.524;8.536;2023-11-22T06:02:55;101511.81;;;-2.18;72.56
64053;BME280;50299;49.524;8.536;2023-11-22T06:05:22;101521.16;;;-2.14;72.97
64053;BME280;50299;49.524;8.536;2023-11-22T06:07:52;101521.09;;;-2.08;72.83
64053;BME280;50299;49.524;8.536;2023-11-22T06:10:18;101525.91;;;-2.10;71.92
64053;BME280;50299;49.524;8.536;2023-11-22T06:12:46;101519.03;;;-2.12;71.68
64053;BME280;50299;49.524;8.536;2023-11-22T06:15:21;101523.22;;;-2.16;71.88
64053;BME280;50299;49.524;8.536;2023-11-22T06:17:51;101527.59;;;-2.15;73.51
64053;BME280;50299;49.524;8.536;2023-11-22T06:20:17;101535.97;;;-2.17;71.32
64053;BME280;50299;49.524;8.536;2023-11-22T06:22:44;101540.41;;;-2.36;71.01
64053;BME280;50299;49.524;8.536;2023-11-22T06:25:14;101550.75;;;-2.64;71.85
64053;BME280;50299;49.524;8.536;2023-11-22T06:27:40;101562.91;;;-2.93;73.64
64053;BME280;50299;49.524;8.536;2023-11-22T06:30:07;101560.88;;;-3.11;74.34
64053;BME280;50299;49.524;8.536;2023-11-22T06:32:35;101561.84;;;-2.86;76.07
64053;BME280;50299;49.524;8.536;2023-11-22T06:35:05;101562.69;;;-2.79;76.06
64053;BME280;50299;49.524;8.536;2023-11-22T06:37:35;101579.28;;;-2.68;75.29
64053;BME280;50299;49.524;8.536;2023-11-22T06:40:02;101581.16;;;-2.62;75.39
64053;BME280;50299;49.524;8.536;2023-11-22T06:42:29;101590.13;;;-2.68;74.51
64053;BME280;50299;49.524;8.536;2023-11-22T06:44:55;101580.16;;;-2.68;73.71
64053;BME280;50299;49.524;8.536;2023-11-22T06:47:27;101583.06;;;-2.69;74.15
64053;BME280;50299;49.524;8.536;2023-11-22T06:49:54;101593.53;;;-2.99;72.88
64053;BME280;50299;49.524;8.536;2023-11-22T06:52:22;101602.09;;;-3.09;73.25
64053;BME280;50299;49.524;8.536;2023-11-22T06:54:49;101599.38;;;-3.03;73.08
64053;BME280;50299;49.524;8.536;2023-11-22T06:57:16;101600.00;;;-3.00;72.53
64053;BME280;50299;49.524;8.536;2023-11-22T06:59:42;101593.50;;;-2.86;74.31
64053;BME280;50299;49.524;8.536;2023-11-22T07:02:11;101600.13;;;-2.69;70.87
64053;BME280;50299;49.524;8.536;2023-11-22T07:04:38;101597.22;;;-2.81;70.25
64053;BME280;50299;49.524;8.536;2023-11-22T07:07:08;101588.69;;;-2.71;73.03
64053;BME280;50299;49.524;8.536;2023-11-22T07:09:41;101585.94;;;-2.64;72.50
64053;BME280;50299;49.524;8.536;2023-11-22T07:12:11;101594.28;;;-2.66;71.86
64053;BME280;50299;49.524;8.536;2023-11-22T07:14:40;101597.63;;;-2.64;68.76
64053;BME280;50299;49.524;8.536;2023-11-22T07:17:08;101604.28;;;-2.73;71.68
64053;BME280;50299;49.524;8.536;2023-11-22T07:19:42;101608.69;;;-2.72;72.78
64053;BME280;50299;49.524;8.536;2023-11-22T07:22:32;101619.97;;;-2.95;66.78
64053;BME280;50299;49.524;8.536;2023-11-22T07:25:09;101609.09;;;-2.75;67.51
64053;BME280;50299;49.524;8.536;2023-11-22T07:27:51;101619.53;;;-2.85;66.83
64053;BME280;50299;49.524;8.536;2023-11-22T07:30:20;101620.72;;;-2.55;69.74
64053;BME280;50299;49.524;8.536;2023-11-22T07:32:53;101615.03;;;-2.40;64.55
64053;BME280;50299;49.524;8.536;2023-11-22T07:35:25;101627.66;;;-2.20;65.71
64053;BME280;50299;49.524;8.536;2023-11-22T07:37:54;101631.75;;;-2.05;67.94
64053;BME280;50299;49.524;8.536;2023-11-22T07:40:23;101626.19;;;-1.78;65.80
64053;BME280;50299;49.524;8.536;2023-11-22T07:42:52;101624.25;;;-1.64;60.85
64053;BME280;50299;49.524;8.536;2023-11-22T07:45:23;101615.03;;;-1.32;63.64
64053;BME280;50299;49.524;8.536;2023-11-22T07:47:52;101628.34;;;-0.98;60.91
64053;BME280;50299;49.524;8.536;2023-11-22T07:50:20;101636.25;;;-0.54;65.93
64053;BME280;50299;49.524;8.536;2023-11-22T07:52:53;101636.84;;;-0.33;57.55
64053;BME280;50299;49.524;8.536;2023-11-22T07:55:23;101638.78;;;-0.04;62.91
64053;BME280;50299;49.524;8.536;2023-11-22T07:57:51;101635.63;;;0.11;61.01
64053;BME280;50299;49.524;8.536;2023-11-22T08:00:22;101633.69;;;-0.48;56.63
64053;BME280;50299;49.524;8.536;2023-11-22T08:03:00;101631.00;;;0.00;55.23
64053;BME280;50299;49.524;8.536;2023-11-22T08:05:33;101627.66;;;-0.02;59.48
64053;BME280;50299;49.524;8.536;2023-11-22T08:08:06;101630.94;;;0.60;61.38
64053;BME280;50299;49.524;8.536;2023-11-22T08:10:37;101634.78;;;0.83;54.77
64053;BME280;50299;49.524;8.536;2023-11-22T08:13:05;101632.78;;;1.02;57.45
64053;BME280;50299;49.524;8.536;2023-11-22T08:15:34;101630.28;;;1.00;61.34
64053;BME280;50299;49.524;8.536;2023-11-22T08:18:01;101631.81;;;0.84;53.87
64053;BME280;50299;49.524;8.536;2023-11-22T08:20:36;101638.28;;;0.60;56.90
64053;BME280;50299;49.524;8.536;2023-11-22T08:23:09;101642.16;;;0.52;59.62
64053;BME280;50299;49.524;8.536;2023-11-22T08:25:39;101641.75;;;0.67;58.75
64053;BME280;50299;49.524;8.536;2023-11-22T08:28:12;101641.34;;;0.52;58.96
64053;BME280;50299;49.524;8.536;2023-11-22T08:30:43;101646.34;;;0.66;55.32
64053;BME280;50299;49.524;8.536;2023-11-22T08:33:15;101646.94;;;0.68;61.45
64053;BME280;50299;49.524;8.536;2023-11-22T08:35:51;101645.09;;;1.04;61.87
64053;BME280;50299;49.524;8.536;2023-11-22T08:38:41;101653.63;;;1.19;55.18
64053;BME280;50299;49.524;8.536;2023-11-22T08:41:13;101654.91;;;1.76;57.86
64053;BME280;50299;49.524;8.536;2023-11-22T08:43:45;101666.84;;;2.55;59.96
64053;BME280;50299;49.524;8.536;2023-11-22T08:46:15;101665.03;;;2.94;52.91
64053;BME280;50299;49.524;8.536;2023-11-22T08:48:44;101648.91;;;3.10;57.18
64053;BME280;50299;49.524;8.536;2023-11-22T08:51:17;101654.69;;;2.63;54.30
64053;BME280;50299;49.524;8.536;2023-11-22T08:53:53;101657.44;;;2.80;53.81
64053;BME280;50299;49.524;8.536;2023-11-22T08:56:19;101656.69;;;3.01;53.68
64053;BME280;50299;49.524;8.536;2023-11-22T08:58:47;101660.72;;;3.15;50.33
64053;BME280;50299;49.524;8.536;2023-11-22T09:01:20;101661.06;;;2.85;45.05
64053;BME280;50299;49.524;8.536;2023-11-22T09:03:55;101664.47;;;1.90;48.89
64053;BME280;50299;49.524;8.536;2023-11-22T09:06:27;101655.72;;;2.16;49.32
64053;BME280;50299;49.524;8.536;2023-11-22T09:08:56;101656.25;;;2.02;49.68
64053;BME280;50299;49.524;8.536;2023-11-22T09:11:24;101659.53;;;2.15;49.81
64053;BME280;50299;49.524;8.536;2023-11-22T09:13:57;101672.81;;;2.40;49.88
64053;BME280;50299;49.524;8.536;2023-11-22T09:16:25;101662.03;;;2.34;52.10
64053;BME280;50299;49.524;8.536;2023-11-22T09:18:52;101669.16;;;2.63;53.89
64053;BME280;50299;49.524;8.536;2023-11-22T09:21:22;101684.44;;;2.19;46.10
64053;BME280;50299;49.524;8.536;2023-11-22T09:23:49;101689.72;;;1.97;47.99
64053;BME280;50299;49.524;8.536;2023-11-22T09:26:22;101681.16;;;2.05;50.96
64053;BME280;50299;49.524;8.536;2023-11-22T09:28:52;101686.50;;;2.29;51.75
64053;BME280;50299;49.524;8.536;2023-11-22T09:31:20;101670.41;;;2.27;51.67
64053;BME280;50299;49.524;8.536;2023-11-22T09:33:52;101665.84;;;2.33;53.27
64053;BME280;50299;49.524;8.536;2023-11-22T09:36:21;101657.88;;;1.74;52.06
64053;BME280;50299;49.524;8.536;2023-11-22T09:38:48;101669.19;;;1.94;53.24
64053;BME280;50299;49.524;8.536;2023-11-22T09:41:20;101666.66;;;1.64;48.45
64053;BME280;50299;49.524;8.536;2023-11-22T09:43:58;101674.59;;;1.66;48.50
64053;BME280;50299;49.524;8.536;2023-11-22T09:46:29;101672.88;;;2.29;51.67
64053;BME280;50299;49.524;8.536;2023-11-22T09:49:01;101667.97;;;2.42;50.37
64053;BME280;50299;49.524;8.536;2023-11-22T09:51:40;101682.97;;;2.57;47.56
64053;BME280;50299;49.524;8.536;2023-11-22T09:54:11;101691.78;;;2.76;49.90
64053;BME280;50299;49.524;8.536;2023-11-22T09:56:42;101689.94;;;2.81;48.59
64053;BME280;50299;49.524;8.536;2023-11-22T09:59:20;101686.44;;;1.72;49.50
64053;BME280;50299;49.524;8.536;2023-11-22T10:01:57;101695.13;;;2.09;46.76
64053;BME280;50299;49.524;8.536;2023-11-22T10:04:26;101704.75;;;2.40;52.03
64053;BME280;50299;49.524;8.536;2023-11-22T10:06:57;101715.63;;;2.52;48.11
64053;BME280;50299;49.524;8.536;2023-11-22T10:09:25;101713.53;;;2.87;49.38
64053;BME280;50299;49.524;8.536;2023-11-22T10:12:01;101711.38;;;2.89;44.62
64053;BME280;50299;49.524;8.536;2023-11-22T10:14:30;101710.78;;;2.70;45.80
64053;BME280;50299;49.524;8.536;2023-11-22T10:17:00;101710.66;;;2.94;45.78
64053;BME280;50299;49.524;8.536;2023-11-22T10:19:41;101707.84;;;3.06;49.98
64053;BME280;50299;49.524;8.536;2023-11-22T10:22:13;101719.66;;;3.11;46.83
64053;BME280;50299;49.524;8.536;2023-11-22T10:24:51;101716.53;;;3.19;48.31
64053;BME280;50299;49.524;8.536;2023-11-22T10:27:22;101720.25;;;2.97;47.90
64053;BME280;50299;49.524;8.536;2023-11-22T10:29:54;101722.31;;;3.23;50.05
64053;BME280;50299;49.524;8.536;2023-11-22T10:32:21;101711.41;;;3.23;44.52
64053;BME280;50299;49.524;8.536;2023-11-22T10:34:50;101716.50;;;2.69;47.46
64053;BME280;50299;49.524;8.536;2023-11-22T10:37:21;101734.31;;;1.56;43.76
64053;BME280;50299;49.524;8.536;2023-11-22T10:39:51;101735.84;;;1.99;48.88
64053;BME280;50299;49.524;8.536;2023-11-22T10:42:21;101734.56;;;2.30;50.42
64053;BME280;50299;49.524;8.536;2023-11-22T10:44:50;101751.59;;;2.77;43.06
64053;BME280;50299;49.524;8.536;2023-11-22T10:47:24;101752.97;;;2.63;44.65
64053;BME280;50299;49.524;8.536;2023-11-22T10:49:56;101748.78;;;2.72;44.25
64053;BME280;50299;49.524;8.536;2023-11-22T10:52:26;101734.50;;;3.15;47.28
64053;BME280;50299;49.524;8.536;2023-11-22T10:55:02;101745.72;;;3.48;47.60
64053;BME280;50299;49.524;8.536;2023-11-22T10:57:45;101742.13;;;3.64;46.52
64053;BME280;50299;49.524;8.536;2023-11-22T11:00:19;101731.53;;;3.89;47.54
64053;BME280;50299;49.524;8.536;2023-11-22T11:03:02;101738.75;;;4.17;46.21
64053;BME280;50299;49.524;8.536;2023-11-22T11:05:34;101743.34;;;4.12;44.06
64053;BME280;50299;49.524;8.536;2023-11-22T11:08:09;101749.13;;;4.37;48.67
64053;BME280;50299;49.524;8.536;2023-11-22T11:10:41;101762.97;;;4.75;48.48
64053;BME280;50299;49.524;8.536;2023-11-22T11:13:12;101764.28;;;4.72;46.59
64053;BME280;50299;49.524;8.536;2023-11-22T11:15:49;101753.81;;;4.86;47.39
64053;BME280;50299;49.524;8.536;2023-11-22T11:18:26;101754.78;;;5.02;45.64
64053;BME280;50299;49.524;8.536;2023-11-22T11:21:08;101754.88;;;4.63;43.99
64053;BME280;50299;49.524;8.536;2023-11-22T11:23:59;101759.50;;;4.35;44.01
64053;BME280;50299;49.524;8.536;2023-11-22T11:26:39;101756.75;;;4.13;46.41
64053;BME280;50299;49.524;8.536;2023-11-22T11:29:29;101764.91;;;3.86;45.01
64053;BME280;50299;49.524;8.536;2023-11-22T11:31:56;101780.09;;;3.43;46.29
64053;BME280;50299;49.524;8.536;2023-11-22T11:34:23;101777.13;;;3.62;48.06
64053;BME280;50299;49.524;8.536;2023-11-22T11:36:53;101775.59;;;3.71;48.13
64053;BME280;50299;49.524;8.536;2023-11-22T11:39:25;101779.53;;;3.58;44.66
64053;BME280;50299;49.524;8.536;2023-11-22T11:42:11;101783.41;;;3.46;43.91
64053;BME280;50299;49.524;8.536;2023-11-22T11:47:40;101780.13;;;2.69;42.46
64053;BME280;50299;49.524;8.536;2023-11-22T11:50:06;101787.91;;;3.06;46.09
64053;BME280;50299;49.524;8.536;2023-11-22T11:52:33;101786.19;;;3.17;48.63
64053;BME280;50299;49.524;8.536;2023-11-22T11:55:03;101790.91;;;3.22;44.15
64053;BME280;50299;49.524;8.536;2023-11-22T11:57:31;101783.50;;;3.34;49.66
64053;BME280;50299;49.524;8.536;2023-11-22T12:00:02;101796.56;;;3.03;46.37
64053;BME280;50299;49.524;8.536;2023-11-22T12:02:32;101803.72;;;2.35;45.47
64053;BME280;50299;49.524;8.536;2023-11-22T12:05:01;101806.16;;;2.60;50.45
64053;BME280;50299;49.524;8.536;2023-11-22T12:07:35;101801.75;;;2.07;47.02
64053;BME280;50299;49.524;8.536;2023-11-22T12:10:07;101796.13;;;2.26;45.82
64053;BME280;50299;49.524;8.536;2023-11-22T12:12:37;101790.72;;;2.14;48.89
64053;BME280;50299;49.524;8.536;2023-11-22T12:15:08;101790.97;;;2.01;47.88
64053;BME280;50299;49.524;8.536;2023-11-22T12:17:37;101783.75;;;2.06;49.53
64053;BME280;50299;49.524;8.536;2023-11-22T12:20:14;101782.34;;;1.68;45.83
64053;BME280;50299;49.524;8.536;2023-11-22T12:22:44;101794.47;;;1.19;44.72
64053;BME280;50299;49.524;8.536;2023-11-22T12:25:11;101775.25;;;1.14;47.62
64053;BME280;50299;49.524;8.536;2023-11-22T12:27:41;101778.66;;;1.63;46.53
64053;BME280;50299;49.524;8.536;2023-11-22T12:30:08;101777.25;;;1.60;48.04
64053;BME280;50299;49.524;8.536;2023-11-22T12:32:39;101761.56;;;2.03;47.04
64053;BME280;50299;49.524;8.536;2023-11-22T12:35:09;101763.66;;;2.24;44.56
64053;BME280;50299;49.524;8.536;2023-11-22T12:37:40;101759.94;;;1.90;45.65
64053;BME280;50299;49.524;8.536;2023-11-22T12:40:13;101753.16;;;1.92;44.17
64053;BME280;50299;49.524;8.536;2023-11-22T12:42:50;101744.56;;;2.12;47.35
64053;BME280;50299;49.524;8.536;2023-11-22T12:45:21;101741.56;;;2.26;44.80
64053;BME280;50299;49.524;8.536;2023-11-22T12:47:51;101747.81;;;2.38;48.08
64053;BME280;50299;49.524;8.536;2023-11-22T12:50:38;101749.31;;;2.57;47.65
64053;BME280;50299;49.524;8.536;2023-11-22T12:53:10;101751.81;;;2.59;45.04
64053;BME280;50299;49.524;8.536;2023-11-22T12:55:48;101747.56;;;2.51;44.82
64053;BME280;50299;49.524;8.536;2023-11-22T12:58:17;101752.41;;;2.78;46.02
64053;BME280;50299;49.524;8.536;2023-11-22T13:00:54;101758.06;;;2.31;43.24
64053;BME280;50299;49.524;8.536;2023-11-22T13:03:24;101768.16;;;2.30;44.11
64053;BME280;50299;49.524;8.536;2023-11-22T13:05:54;101752.41;;;2.09;43.69
64053;BME280;50299;49.524;8.536;2023-11-22T13:08:31;101759.53;;;2.50;49.29
64053;BME280;50299;49.524;8.536;2023-11-22T13:11:09;101767.88;;;2.72;50.13